Lido, Italy

9:50 AM CET on February 08, 2016 (GMT +0100)
ParcoSpino | | Change Station
CLOSE
Current Station
Personal Weather Station
Location: Venezia, VENETO
Elevation: 3 ft
Nearby Weather Stations

Elev 3 ft 45.38 °N, 12.35 °E | Updated 12 minutes ago

Light Rain
Light Rain Mist
47.8 °F
Feels Like 45 °F
N
6.3
Wind Variable Wind from SW

Today
High -- | Low -- °F
--% Chance of Precip.
Yesterday
High -- | Low -- °F
Precip. -- in
Pressure 29.95 in
Visibility 1.9 miles
Clouds Few 300 ft
Mostly Cloudy 3500 ft
Windchill 45 °F
Dew Point 48 °F
Humidity 99%
Rainfall 0.22 in
Snow Depth Not available.
7:23 AM 5:26 PM
Waning Crescent, 0% visible
METAR LIPZ 080820Z 13003KT 090V160 3000 -RA BR FEW003 BKN035 09/08 Q1014 NOSIG
Pressure 29.95 in
Visibility 1.9 miles
Clouds Few 300 ft
Mostly Cloudy 3500 ft
Windchill 45 °F
Dew Point 48 °F
Humidity 99%
Rainfall 0.22 in
Snow Depth Not available.
7:23 AM 5:26 PM
Waning Crescent, 0% visible
METAR LIPZ 080820Z 13003KT 090V160 3000 -RA BR FEW003 BKN035 09/08 Q1014 NOSIG

10-Day Weather Forecast

Almanac

Astronomy

Feb. 08, 2016 Rise Set
Actual Time
Civil Twilight
Nautical Twilight
Astronomical Twilight
Moon
Length of Visible Light
Length of Day
Tomorrow will be .
, % of the Moon is Illuminated

Today's Extremes

Country Highs Country Lows

Community

WunderPhotos

Upload Photos

1,891,412 photos uploaded!

WunderBlog® & News

Nearby

Air Quality

  Air Quality AQ Index Pollutant
Not available.

Snow Depth

Station Depth Elevation

Earthquake Activity

City Distance Mag. Time & Date
Minimum magnitude displayed is 2.5.

Coastal Water Temperatures

Place Temperature

Stations

Nearby Weather Stations

Station Location Temp. Windchill Dew Point Humidity Wind Precip. Elev Updated Type